Hakasskaja, Russia
Current Conditions -  °F | °C
As of 12:00 AM on Monday 22 Dec 2014 (Local Time) from UNAA Reporting Station
Haze Haze  
Wind Chill:   Ceiling: 7600
Heat Index:   Visibility: 1.3mi
Dew Point:   Wind: 0mph
Humidity: 78%   Direction: NA
Pressure: 30.3"   Gusts: NA
Location:  53.77°N, 91.32°E
Report Text: UNAA 211700Z 00000MPS 2100 BR FEW003 OVC076 M15/M18 Q1026 NOSIGRMK QFE746 52190055
Loading
Personal Weather Stations






























Interactive Weather Map New forecast layout! Learn more

10-Day Weather Forecast

Advertisements
Track Severe Weather on mobile